»·PEaware :: EAW235 KSLC-KDEN

EAW235 :: KSLC-KDEN

FLIGHT INFORMATION

Flight Status: Arrived
Operator: Unknown
More flights by this operator :: More flights under this callsign
Pilot: Dave P. (45)
Aircraft: BOEING 737-800
(B738)
More flights by this aircraft type
Origin: KSLC Salt Lake City Intl
United States
Destination: KDEN Denver Intl
United States
More flights between these airports :: More routes between these airports
Route: +RUGGD1 PERTY CHE KAILE2
File this flight plan on PilotEdge
Remarks: EAW = Eagle Airways, callsign is "EAGLE"
Altitude:
(Current/Filed)
35,000ft
Speed:
(Current/Filed)
456kts
Departed: 07-Jun-18 07:19 AM
Arrived: 07-Jun-18 08:19 AM
Distance/Time
Traveled:
339nm/1:00
Distance/Time
To Go:
Arrived

Flight Plot

Page will automatically refresh every two minutes.

Flight plan parsing failed; only flown route is shown


Map Options




Map Legend


Flown Route
Filed Route
Departure Airport
Arrival Airport
Navaid (VOR, NDB)
Fix

Horizontal Profiles

Position Reports

Time Latitude Longitude Heading Altitude Ground
Speed
07-Jun-18 06:32 40.785102 -111.977477 289 4235ft 0kts
07-Jun-18 06:33 40.785102 -111.977477 289 4235ft 0kts
07-Jun-18 06:34 40.785102 -111.977477 289 4235ft 0kts
07-Jun-18 06:35 40.785102 -111.977477 289 4235ft 0kts
07-Jun-18 06:36 40.785102 -111.977477 289 4235ft 0kts
07-Jun-18 06:37 40.785102 -111.977477 289 4235ft 0kts
07-Jun-18 06:38 40.785102 -111.977477 289 4235ft 0kts
07-Jun-18 06:39 40.785102 -111.977477 289 4235ft 0kts
07-Jun-18 06:40 40.785102 -111.977477 289 4235ft 0kts
07-Jun-18 06:41 40.785102 -111.977477 289 4235ft 0kts
07-Jun-18 06:42 40.785102 -111.977477 289 4235ft 0kts
07-Jun-18 06:43 40.785102 -111.977477 289 4235ft 0kts
07-Jun-18 06:44 40.785102 -111.977477 289 4235ft 0kts
07-Jun-18 06:45 40.785102 -111.977477 289 4235ft 0kts
07-Jun-18 06:46 40.785102 -111.977477 289 4235ft 0kts
07-Jun-18 06:47 40.785102 -111.977477 289 4235ft 0kts
07-Jun-18 06:48 40.785102 -111.977477 289 4235ft 0kts
07-Jun-18 06:49 40.785102 -111.977477 289 4235ft 0kts
07-Jun-18 06:50 40.785102 -111.977477 289 4235ft 0kts
07-Jun-18 06:51 40.785102 -111.977477 289 4235ft 0kts
07-Jun-18 06:52 40.785102 -111.977477 289 4235ft 0kts
07-Jun-18 06:53 40.785102 -111.977477 289 4235ft 0kts
07-Jun-18 06:54 40.785102 -111.977477 289 4235ft 0kts
07-Jun-18 06:55 40.785102 -111.977477 289 4235ft 0kts
07-Jun-18 06:56 40.785102 -111.977477 289 4235ft 0kts
07-Jun-18 06:57 40.785102 -111.977477 289 4235ft 0kts
07-Jun-18 06:58 40.785102 -111.977477 289 4235ft 0kts
07-Jun-18 06:59 40.785102 -111.977477 289 4235ft 0kts
07-Jun-18 07:00 40.785102 -111.977477 289 4235ft 0kts
07-Jun-18 07:01 40.785102 -111.977477 289 4235ft 0kts
07-Jun-18 07:02 40.785102 -111.977477 289 4235ft 0kts
07-Jun-18 07:03 40.785102 -111.977477 289 4235ft 0kts
07-Jun-18 07:04 40.785102 -111.977477 289 4235ft 0kts
07-Jun-18 07:05 40.785102 -111.977477 289 4235ft 0kts
07-Jun-18 07:06 40.785102 -111.977477 289 4235ft 0kts
07-Jun-18 07:07 40.785102 -111.977477 289 4235ft 0kts
07-Jun-18 07:08 40.784946 -111.977106 313 4235ft 2kts
07-Jun-18 07:09 40.784453 -111.976833 358 4235ft 0kts
07-Jun-18 07:10 40.784453 -111.976833 358 4235ft 0kts
07-Jun-18 07:11 40.784454 -111.976833 358 4235ft 0kts
07-Jun-18 07:12 40.784455 -111.976833 358 4235ft 0kts
07-Jun-18 07:13 40.787533 -111.976858 354 4235ft 25kts
07-Jun-18 07:14 40.793562 -111.977550 355 4235ft 22kts
07-Jun-18 07:15 40.800458 -111.978340 355 4235ft 24kts
07-Jun-18 07:16 40.806866 -111.979093 354 4235ft 14kts
07-Jun-18 07:17 40.807548 -111.978348 87 4235ft 6kts
07-Jun-18 07:18 40.806999 -111.976830 174 4235ft 1kts
07-Jun-18 07:19 40.783492 -111.974100 174 4383ft 163kts
07-Jun-18 07:20 40.759751 -112.013787 289 6426ft 215kts
07-Jun-18 07:21 40.788078 -112.100492 292 7895ft 288kts
07-Jun-18 07:22 40.858188 -112.140573 16 10583ft 315kts
07-Jun-18 07:23 40.945548 -112.085727 26 11889ft 379kts
07-Jun-18 07:24 41.039494 -112.015820 42 14269ft 398kts
07-Jun-18 07:25 41.094392 -111.886880 67 16750ft 413kts
07-Jun-18 07:26 41.117943 -111.740134 109 19050ft 414kts
07-Jun-18 07:27 41.050478 -111.620893 136 21292ft 412kts
07-Jun-18 07:28 40.973888 -111.504190 133 23253ft 426kts
07-Jun-18 07:29 40.908915 -111.370653 111 25004ft 452kts
07-Jun-18 07:30 40.885907 -111.203994 103 26554ft 468kts
07-Jun-18 07:31 40.865250 -111.032118 103 27963ft 477kts
07-Jun-18 07:32 40.844339 -110.857564 102 29237ft 486kts
07-Jun-18 07:33 40.823040 -110.682067 103 30859ft 482kts
07-Jun-18 07:34 40.801416 -110.507623 103 32462ft 477kts
07-Jun-18 07:35 40.780057 -110.335328 103 33895ft 474kts
07-Jun-18 07:36 40.758138 -110.164556 103 35136ft 473kts
07-Jun-18 07:37 40.737814 -109.992042 99 35143ft 474kts
07-Jun-18 07:38 40.726228 -109.819822 98 35132ft 472kts
07-Jun-18 07:39 40.713818 -109.647649 98 35124ft 472kts
07-Jun-18 07:40 40.701502 -109.474983 98 35119ft 472kts
07-Jun-18 07:41 40.688857 -109.303170 99 35120ft 471kts
07-Jun-18 07:42 40.687712 -109.287926 99 35120ft 471kts
07-Jun-18 07:43 40.674497 -109.114755 98 35122ft 477kts
07-Jun-18 07:44 40.660984 -108.941564 98 35122ft 475kts
07-Jun-18 07:45 40.647177 -108.768200 98 35123ft 475kts
07-Jun-18 07:46 40.633168 -108.595670 99 35147ft 473kts
07-Jun-18 07:47 40.618927 -108.423495 99 35153ft 473kts
07-Jun-18 07:48 40.604391 -108.250931 99 35161ft 473kts
07-Jun-18 07:49 40.589662 -108.079165 99 35169ft 473kts
07-Jun-18 07:50 40.574690 -107.907587 99 35164ft 471kts
07-Jun-18 07:51 40.559463 -107.736038 99 35175ft 472kts
07-Jun-18 07:52 40.544285 -107.564701 99 35170ft 471kts
07-Jun-18 07:53 40.528419 -107.393972 99 35177ft 471kts
07-Jun-18 07:54 40.514960 -107.222457 96 35208ft 472kts
07-Jun-18 07:55 40.506211 -107.050742 96 35224ft 471kts
07-Jun-18 07:56 40.496712 -106.878628 97 35229ft 471kts
07-Jun-18 07:57 40.487741 -106.708126 96 32865ft 469kts
07-Jun-18 07:58 40.478137 -106.538727 97 30570ft 459kts
07-Jun-18 07:59 40.468212 -106.373516 97 28534ft 447kts
07-Jun-18 08:00 40.458699 -106.212874 96 26562ft 437kts
07-Jun-18 08:01 40.448737 -106.055291 96 24590ft 430kts
07-Jun-18 08:02 40.436337 -105.930634 103 23001ft 425kts
07-Jun-18 08:03 40.411567 -105.780071 103 21063ft 420kts
07-Jun-18 08:04 40.387879 -105.630837 103 19018ft 417kts
07-Jun-18 08:05 40.364679 -105.486389 103 17703ft 384kts
07-Jun-18 08:06 40.345753 -105.357399 100 16718ft 345kts
07-Jun-18 08:07 40.329114 -105.233250 100 15158ft 346kts
07-Jun-18 08:08 40.311865 -105.109209 100 13900ft 343kts
07-Jun-18 08:09 40.295280 -104.991020 100 13156ft 318kts
07-Jun-18 08:10 40.279374 -104.879426 100 12234ft 303kts
07-Jun-18 08:11 40.247484 -104.789638 128 11696ft 260kts
07-Jun-18 08:12 40.204105 -104.714783 128 10259ft 253kts
07-Jun-18 08:13 40.146069 -104.684002 180 9144ft 222kts
07-Jun-18 08:14 40.088002 -104.684596 181 8132ft 203kts
07-Jun-18 08:15 40.036785 -104.685187 181 7040ft 178kts
07-Jun-18 08:16 39.986917 -104.685766 181 7014ft 181kts
07-Jun-18 08:17 39.938835 -104.686327 182 6282ft 161kts
07-Jun-18 08:18 39.895778 -104.686841 182 5438ft 152kts
07-Jun-18 08:19 39.876249 -104.685548 151 5333ft 5kts
07-Jun-18 08:20 39.876034 -104.685394 151 5333ft 0kts
07-Jun-18 08:21 39.873188 -104.684965 180 5333ft 17kts
07-Jun-18 08:22 39.867999 -104.685023 180 5333ft 21kts
07-Jun-18 08:23 39.862820 -104.685072 180 5333ft 14kts
07-Jun-18 08:24 39.856959 -104.685138 180 5333ft 18kts
07-Jun-18 08:25 39.855997 -104.680232 90 5333ft 16kts
07-Jun-18 08:26 39.855269 -104.676429 89 5333ft 12kts
07-Jun-18 08:27 39.854961 -104.673778 145 5333ft 5kts
07-Jun-18 08:28 39.854438 -104.673292 144 5333ft 0kts
07-Jun-18 08:29 39.854438 -104.673292 144 5333ft 0kts

Navigation Log

Ident Type
Flight plan parsing failed, navigation log unavailable